sensor_id;sensor_type;location;lat;lon;timestamp;pressure;altitude;pressure_sealevel;temperature;humidity
4123;BME280;2075;51.062;6.920;2023-03-23T00:00:46;91144.38;;;-144.48;100.00
4123;BME280;2075;51.062;6.920;2023-03-23T00:03:31;91398.13;;;-144.48;100.00
4123;BME280;2075;51.062;6.920;2023-03-23T00:06:20;92191.94;;;-144.48;100.00
4123;BME280;2075;51.062;6.920;2023-03-23T00:09:05;91976.72;;;-144.48;100.00
4123;BME280;2075;51.062;6.920;2023-03-23T00:11:51;92486.38;;;-144.48;100.00
4123;BME280;2075;51.062;6.920;2023-03-23T00:14:41;92784.88;;;-144.48;100.00
4123;BME280;2075;51.062;6.920;2023-03-23T00:17:27;92929.06;;;-144.48;100.00
4123;BME280;2075;51.062;6.920;2023-03-23T00:20:13;92835.66;;;-144.48;100.00
4123;BME280;2075;51.062;6.920;2023-03-23T00:23:00;92896.56;;;-144.48;100.00
4123;BME280;2075;51.062;6.920;2023-03-23T00:25:47;92758.47;;;-144.48;100.00
4123;BME280;2075;51.062;6.920;2023-03-23T00:28:32;92977.81;;;-144.48;100.00
4123;BME280;2075;51.062;6.920;2023-03-23T00:31:18;93014.38;;;-144.48;100.00
4123;BME280;2075;51.062;6.920;2023-03-23T00:34:04;92839.72;;;-144.48;100.00
4123;BME280;2075;51.062;6.920;2023-03-23T00:36:50;92748.31;;;-144.48;100.00
4123;BME280;2075;51.062;6.920;2023-03-23T00:39:39;92983.91;;;-144.48;100.00
4123;BME280;2075;51.062;6.920;2023-03-23T00:42:29;92652.88;;;-144.48;100.00
4123;BME280;2075;51.062;6.920;2023-03-23T00:45:20;92368.59;;;-144.48;100.00
4123;BME280;2075;51.062;6.920;2023-03-23T00:48:05;92486.38;;;-144.48;100.00
4123;BME280;2075;51.062;6.920;2023-03-23T00:50:51;92803.16;;;-144.48;100.00
4123;BME280;2075;51.062;6.920;2023-03-23T00:53:38;92752.38;;;-144.48;100.00
4123;BME280;2075;51.062;6.920;2023-03-23T00:56:24;92583.84;;;-144.48;100.00
4123;BME280;2075;51.062;6.920;2023-03-23T00:59:10;92055.91;;;-144.48;100.00
4123;BME280;2075;51.062;6.920;2023-03-23T01:01:56;92317.81;;;-144.48;100.00
4123;BME280;2075;51.062;6.920;2023-03-23T01:04:42;92139.13;;;-144.48;100.00
4123;BME280;2075;51.062;6.920;2023-03-23T01:07:28;91666.09;;;-144.48;100.00
4123;BME280;2075;51.062;6.920;2023-03-23T01:10:14;91422.47;;;-144.48;100.00
4123;BME280;2075;51.062;6.920;2023-03-23T01:13:03;91379.84;;;-144.48;100.00
4123;BME280;2075;51.062;6.920;2023-03-23T01:15:48;91767.59;;;-144.48;100.00
4123;BME280;2075;51.062;6.920;2023-03-23T01:18:33;91459.03;;;-144.48;100.00
4123;BME280;2075;51.062;6.920;2023-03-23T01:21:20;91325.03;;;-144.48;100.00
4123;BME280;2075;51.062;6.920;2023-03-23T01:24:06;91828.50;;;-144.48;100.00
4123;BME280;2075;51.062;6.920;2023-03-23T01:26:51;91743.22;;;-144.48;100.00
4123;BME280;2075;51.062;6.920;2023-03-23T01:29:38;90358.94;;;-144.48;100.00
4123;BME280;2075;51.062;6.920;2023-03-23T01:32:24;89155.72;;;-144.48;100.00
4123;BME280;2075;51.062;6.920;2023-03-23T01:35:12;88038.13;;;-144.48;100.00
4123;BME280;2075;51.062;6.920;2023-03-23T01:37:58;89892.22;;;-144.48;100.00
4123;BME280;2075;51.062;6.920;2023-03-23T01:40:43;85560.78;;;-144.48;100.00
4123;BME280;2075;51.062;6.920;2023-03-23T01:43:30;77795.69;;;-144.48;100.00
4123;BME280;2075;51.062;6.920;2023-03-23T01:46:17;70788.59;;;-144.48;100.00
4123;BME280;2075;51.062;6.920;2023-03-23T01:49:06;57337.88;;;-144.48;100.00
4123;BME280;2075;51.062;6.920;2023-03-23T01:51:54;43473.84;;;-144.48;100.00
4123;BME280;2075;51.062;6.920;2023-03-23T01:54:41;33240.88;;;-144.48;100.00
4123;BME280;2075;51.062;6.920;2023-03-23T01:57:29;28136.09;;;-144.48;100.00
4123;BME280;2075;51.062;6.920;2023-03-23T02:00:17;25841.47;;;-144.48;100.00
4123;BME280;2075;51.062;6.920;2023-03-23T02:03:09;26606.16;;;-144.48;100.00
4123;BME280;2075;51.062;6.920;2023-03-23T02:05:58;25331.78;;;-144.48;100.00
4123;BME280;2075;51.062;6.920;2023-03-23T02:09:07;19984.66;;;-144.48;100.00
4123;BME280;2075;51.062;6.920;2023-03-23T02:11:53;18458.47;;;-144.48;100.00
4123;BME280;2075;51.062;6.920;2023-03-23T02:14:39;19475.84;;;-144.48;100.00
4123;BME280;2075;51.062;6.920;2023-03-23T02:17:31;17949.91;;;-144.48;100.00
4123;BME280;2075;51.062;6.920;2023-03-23T02:20:37;15408.25;;;-144.48;100.00
4123;BME280;2075;51.062;6.920;2023-03-23T02:23:38;14900.13;;;-144.48;100.00
4123;BME280;2075;51.062;6.920;2023-03-23T02:26:38;12868.53;;;-144.48;100.00
4123;BME280;2075;51.062;6.920;2023-03-23T02:33:10;13630.22;;;-144.48;100.00
4123;BME280;2075;51.062;6.920;2023-03-23T02:36:00;13884.19;;;-144.48;100.00
4123;BME280;2075;51.062;6.920;2023-03-23T02:38:54;13376.31;;;-144.48;100.00
4123;BME280;2075;51.062;6.920;2023-03-23T02:41:43;14392.13;;;-144.48;100.00
4123;BME280;2075;51.062;6.920;2023-03-23T02:44:32;12360.81;;;-144.48;100.00
4123;BME280;2075;51.062;6.920;2023-03-23T02:47:21;13122.41;;;-144.48;100.00
4123;BME280;2075;51.062;6.920;2023-03-23T02:50:13;11853.19;;;-144.48;100.00
4123;BME280;2075;51.062;6.920;2023-03-23T02:53:01;13122.41;;;-144.48;100.00
4123;BME280;2075;51.062;6.920;2023-03-23T02:55:48;12614.66;;;-144.48;100.00
4123;BME280;2075;51.062;6.920;2023-03-23T02:58:38;13376.31;;;-144.48;100.00
4123;BME280;2075;51.062;6.920;2023-03-23T03:01:48;13376.31;;;-144.48;100.00
4123;BME280;2075;51.062;6.920;2023-03-23T03:04:36;12107.00;;;-144.48;100.00
4123;BME280;2075;51.062;6.920;2023-03-23T03:07:47;14138.13;;;-144.48;100.00
4123;BME280;2075;51.062;6.920;2023-03-23T03:10:42;13884.19;;;-144.48;100.00
4123;BME280;2075;51.062;6.920;2023-03-23T03:13:35;13630.22;;;-144.48;100.00
4123;BME280;2075;51.062;6.920;2023-03-23T03:16:27;15916.41;;;-144.48;100.00
4123;BME280;2075;51.062;6.920;2023-03-23T03:19:20;21257.00;;;-144.48;100.00
4123;BME280;2075;51.062;6.920;2023-03-23T03:22:09;22275.22;;;-144.48;100.00
4123;BME280;2075;51.062;6.920;2023-03-23T03:25:00;22020.63;;;-144.48;100.00
4123;BME280;2075;51.062;6.920;2023-03-23T03:27:47;22784.44;;;-144.48;100.00
4123;BME280;2075;51.062;6.920;2023-03-23T03:30:45;25076.94;;;-144.48;100.00
4123;BME280;2075;51.062;6.920;2023-03-23T03:33:33;23548.44;;;-144.48;100.00
4123;BME280;2075;51.062;6.920;2023-03-23T03:36:21;29156.41;;;-144.48;100.00
4123;BME280;2075;51.062;6.920;2023-03-23T03:39:09;30942.75;;;-144.48;100.00
4123;BME280;2075;51.062;6.920;2023-03-23T03:41:56;34518.28;;;-144.48;100.00
4123;BME280;2075;51.062;6.920;2023-03-23T03:44:42;37330.31;;;-144.48;100.00
4123;BME280;2075;51.062;6.920;2023-03-23T03:47:27;39121.03;;;-144.48;100.00
4123;BME280;2075;51.062;6.920;2023-03-23T03:50:13;37074.59;;;-144.48;100.00
4123;BME280;2075;51.062;6.920;2023-03-23T03:52:58;40400.69;;;-144.48;100.00
4123;BME280;2075;51.062;6.920;2023-03-23T03:55:44;43473.84;;;-144.48;100.00
4123;BME280;2075;51.062;6.920;2023-03-23T03:58:35;44498.88;;;-144.48;100.00
4123;BME280;2075;51.062;6.920;2023-03-23T04:01:23;42705.31;;;-144.48;100.00
4123;BME280;2075;51.062;6.920;2023-03-23T04:04:09;43473.84;;;-144.48;100.00
4123;BME280;2075;51.062;6.920;2023-03-23T04:06:55;40400.69;;;-144.48;100.00
4123;BME280;2075;51.062;6.920;2023-03-23T04:09:41;40400.69;;;-144.48;100.00
4123;BME280;2075;51.062;6.920;2023-03-23T04:12:28;40912.69;;;-144.48;100.00
4123;BME280;2075;51.062;6.920;2023-03-23T04:15:14;41680.84;;;-144.48;100.00
4123;BME280;2075;51.062;6.920;2023-03-23T04:18:01;42961.47;;;-144.48;100.00
4123;BME280;2075;51.062;6.920;2023-03-23T04:20:48;45267.84;;;-144.48;100.00
4123;BME280;2075;51.062;6.920;2023-03-23T04:23:37;41680.84;;;-144.48;100.00
4123;BME280;2075;51.062;6.920;2023-03-23T04:26:26;38097.66;;;-144.48;100.00
4123;BME280;2075;51.062;6.920;2023-03-23T04:29:14;39888.75;;;-144.48;100.00
4123;BME280;2075;51.062;6.920;2023-03-23T04:32:18;42705.31;;;-144.48;100.00
4123;BME280;2075;51.062;6.920;2023-03-23T04:35:09;39632.81;;;-144.48;100.00
4123;BME280;2075;51.062;6.920;2023-03-23T04:38:01;41424.75;;;-144.48;100.00
4123;BME280;2075;51.062;6.920;2023-03-23T04:40:48;40656.66;;;-144.48;100.00
4123;BME280;2075;51.062;6.920;2023-03-23T04:43:55;42193.03;;;-144.48;100.00
4123;BME280;2075;51.062;6.920;2023-03-23T04:47:01;38865.16;;;-144.48;100.00
4123;BME280;2075;51.062;6.920;2023-03-23T04:49:52;42193.03;;;-144.48;100.00
4123;BME280;2075;51.062;6.920;2023-03-23T04:52:44;41424.75;;;-144.48;100.00
4123;BME280;2075;51.062;6.920;2023-03-23T04:55:34;43473.84;;;-144.48;100.00
4123;BME280;2075;51.062;6.920;2023-03-23T04:58:22;42705.31;;;-144.48;100.00
4123;BME280;2075;51.062;6.920;2023-03-23T05:01:19;44498.88;;;-144.48;100.00
4123;BME280;2075;51.062;6.920;2023-03-23T05:04:31;43730.06;;;-144.48;100.00
4123;BME280;2075;51.062;6.920;2023-03-23T05:07:27;41680.84;;;-144.48;100.00
4123;BME280;2075;51.062;6.920;2023-03-23T05:10:15;44755.16;;;-144.48;100.00
4123;BME280;2075;51.062;6.920;2023-03-23T05:13:01;42705.31;;;-144.48;100.00
4123;BME280;2075;51.062;6.920;2023-03-23T05:15:47;40912.69;;;-144.48;100.00
4123;BME280;2075;51.062;6.920;2023-03-23T05:18:32;42961.47;;;-144.48;100.00
4123;BME280;2075;51.062;6.920;2023-03-23T05:21:20;42705.31;;;-144.48;100.00
4123;BME280;2075;51.062;6.920;2023-03-23T05:24:11;41680.84;;;-144.48;100.00
4123;BME280;2075;51.062;6.920;2023-03-23T05:26:57;39888.75;;;-144.48;100.00
4123;BME280;2075;51.062;6.920;2023-03-23T05:29:49;41936.91;;;-144.48;100.00
4123;BME280;2075;51.062;6.920;2023-03-23T05:32:36;46036.97;;;-144.48;100.00
4123;BME280;2075;51.062;6.920;2023-03-23T05:35:38;47832.31;;;-144.48;100.00
4123;BME280;2075;51.062;6.920;2023-03-23T05:38:23;48602.03;;;-144.48;100.00
4123;BME280;2075;51.062;6.920;2023-03-23T05:41:11;47319.28;;;-144.48;100.00
4123;BME280;2075;51.062;6.920;2023-03-23T05:43:59;46806.28;;;-144.48;100.00
4123;BME280;2075;51.062;6.920;2023-03-23T05:47:05;45524.19;;;-144.48;100.00
4123;BME280;2075;51.062;6.920;2023-03-23T05:49:52;52710.22;;;-144.48;100.00
4123;BME280;2075;51.062;6.920;2023-03-23T05:52:40;57595.16;;;-144.48;100.00
4123;BME280;2075;51.062;6.920;2023-03-23T05:55:28;66870.13;;;-144.48;100.00
4123;BME280;2075;51.062;6.920;2023-03-23T05:58:24;71642.25;;;-144.48;100.00
4123;BME280;2075;51.062;6.920;2023-03-23T06:01:10;76833.34;;;-144.48;100.00
4123;BME280;2075;51.062;6.920;2023-03-23T06:03:58;78816.94;;;-144.48;100.00
4123;BME280;2075;51.062;6.920;2023-03-23T06:06:53;80894.75;;;-144.48;100.00
4123;BME280;2075;51.062;6.920;2023-03-23T06:09:40;81827.88;;;-144.48;100.00
4123;BME280;2075;51.062;6.920;2023-03-23T06:12:43;83704.97;;;-144.48;100.00
4123;BME280;2075;51.062;6.920;2023-03-23T06:15:39;87008.03;;;-144.48;100.00
4123;BME280;2075;51.062;6.920;2023-03-23T06:18:35;90679.59;;;-144.48;100.00
4123;BME280;2075;51.062;6.920;2023-03-23T06:21:37;92453.88;;;-144.48;100.00
4123;BME280;2075;51.062;6.920;2023-03-23T06:24:46;93071.22;;;-144.48;99.59
4123;BME280;2075;51.062;6.920;2023-03-23T06:27:36;93365.72;;;-144.48;98.60
4123;BME280;2075;51.062;6.920;2023-03-23T06:30:22;93449.00;;;-144.48;98.12
4123;BME280;2075;51.062;6.920;2023-03-23T06:33:09;93428.69;;;-144.48;98.44
4123;BME280;2075;51.062;6.920;2023-03-23T06:36:14;93589.16;;;-144.48;97.75
4123;BME280;2075;51.062;6.920;2023-03-23T06:39:06;93737.44;;;-144.48;96.13
4123;BME280;2075;51.062;6.920;2023-03-23T06:42:14;93761.81;;;-144.48;95.51
4123;BME280;2075;51.062;6.920;2023-03-23T06:45:06;93879.66;;;-144.48;94.32
4123;BME280;2075;51.062;6.920;2023-03-23T06:47:54;93895.91;;;-144.48;93.98
4123;BME280;2075;51.062;6.920;2023-03-23T06:50:44;93843.06;;;-144.48;93.08
4123;BME280;2075;51.062;6.920;2023-03-23T06:53:32;93871.50;;;-144.48;92.07
4123;BME280;2075;51.062;6.920;2023-03-23T06:56:18;93960.91;;;-144.48;90.81
4123;BME280;2075;51.062;6.920;2023-03-23T06:59:05;93954.81;;;-144.48;90.00
4123;BME280;2075;51.062;6.920;2023-03-23T07:01:51;93916.22;;;-144.48;90.44
4123;BME280;2075;51.062;6.920;2023-03-23T07:04:36;93991.38;;;-144.48;89.52
4123;BME280;2075;51.062;6.920;2023-03-23T07:07:30;93964.97;;;-144.48;89.25
4123;BME280;2075;51.062;6.920;2023-03-23T07:10:28;93964.97;;;-144.48;89.11
4123;BME280;2075;51.062;6.920;2023-03-23T07:13:14;93991.38;;;-144.48;88.85
4123;BME280;2075;51.062;6.920;2023-03-23T07:16:07;93885.75;;;-144.48;88.98
4123;BME280;2075;51.062;6.920;2023-03-23T07:18:56;93969.03;;;-144.48;88.68
4123;BME280;2075;51.062;6.920;2023-03-23T07:21:42;93958.88;;;-144.48;87.57
4123;BME280;2075;51.062;6.920;2023-03-23T07:24:29;93950.75;;;-144.48;86.29
4123;BME280;2075;51.062;6.920;2023-03-23T07:27:34;93964.97;;;-144.48;86.62
4123;BME280;2075;51.062;6.920;2023-03-23T07:30:20;93993.41;;;-144.48;86.40
4123;BME280;2075;51.062;6.920;2023-03-23T07:33:07;93985.28;;;-144.48;85.50
4123;BME280;2075;51.062;6.920;2023-03-23T07:36:02;93924.34;;;-144.48;85.46
4123;BME280;2075;51.062;6.920;2023-03-23T07:38:54;93997.47;;;-144.48;85.08
4123;BME280;2075;51.062;6.920;2023-03-23T07:41:42;94011.69;;;-144.48;84.39
4123;BME280;2075;51.062;6.920;2023-03-23T07:44:39;93975.13;;;-144.48;83.89
4123;BME280;2075;51.062;6.920;2023-03-23T07:47:28;93946.69;;;-144.48;83.87
4123;BME280;2075;51.062;6.920;2023-03-23T07:50:20;93954.81;;;-144.48;83.26
4123;BME280;2075;51.062;6.920;2023-03-23T07:53:10;93971.06;;;-144.48;83.72
4123;BME280;2075;51.062;6.920;2023-03-23T07:56:00;93908.09;;;-144.48;82.54
4123;BME280;2075;51.062;6.920;2023-03-23T07:59:11;93814.63;;;-144.48;82.14
4123;BME280;2075;51.062;6.920;2023-03-23T08:01:59;93912.16;;;-144.48;80.99
4123;BME280;2075;51.062;6.920;2023-03-23T08:04:45;93944.66;;;-144.48;79.49
4123;BME280;2075;51.062;6.920;2023-03-23T08:07:58;93956.84;;;-144.48;80.02
4123;BME280;2075;51.062;6.920;2023-03-23T08:11:04;93962.94;;;-144.48;80.09
4123;BME280;2075;51.062;6.920;2023-03-23T08:14:10;93938.56;;;-144.48;78.50
4123;BME280;2075;51.062;6.920;2023-03-23T08:16:59;93879.66;;;-144.48;78.17
4123;BME280;2075;51.062;6.920;2023-03-23T08:20:13;93924.34;;;-144.48;78.83
4123;BME280;2075;51.062;6.920;2023-03-23T08:23:24;93916.22;;;-144.48;77.40
4123;BME280;2075;51.062;6.920;2023-03-23T08:26:30;93885.75;;;-144.48;75.99
4123;BME280;2075;51.062;6.920;2023-03-23T08:29:31;93904.03;;;-144.48;76.62
4123;BME280;2075;51.062;6.920;2023-03-23T08:32:33;93910.13;;;-144.48;76.04
4123;BME280;2075;51.062;6.920;2023-03-23T08:35:38;93818.69;;;-144.48;73.25
4123;BME280;2075;51.062;6.920;2023-03-23T08:38:59;93891.84;;;-144.48;72.19
4123;BME280;2075;51.062;6.920;2023-03-23T08:42:05;93871.50;;;-144.48;73.06
4123;BME280;2075;51.062;6.920;2023-03-23T08:45:15;93806.50;;;-144.48;70.90
4123;BME280;2075;51.062;6.920;2023-03-23T08:48:24;93887.78;;;-144.48;71.25
4123;BME280;2075;51.062;6.920;2023-03-23T08:51:42;93904.03;;;-144.48;72.80
4123;BME280;2075;51.062;6.920;2023-03-23T08:54:41;93867.47;;;-144.48;72.99
4123;BME280;2075;51.062;6.920;2023-03-23T08:57:49;93875.59;;;-144.48;72.21
4123;BME280;2075;51.062;6.920;2023-03-23T09:00:48;93932.47;;;-144.48;70.89
4123;BME280;2075;51.062;6.920;2023-03-23T09:03:52;93895.91;;;-144.48;71.41
4123;BME280;2075;51.062;6.920;2023-03-23T09:06:51;93897.94;;;-144.48;70.57
4123;BME280;2075;51.062;6.920;2023-03-23T09:09:37;93883.72;;;-144.48;71.36
4123;BME280;2075;51.062;6.920;2023-03-23T09:12:23;93916.22;;;-144.48;70.04
4123;BME280;2075;51.062;6.920;2023-03-23T09:15:13;93918.25;;;-144.48;70.38
4123;BME280;2075;51.062;6.920;2023-03-23T09:18:02;93910.13;;;-144.48;70.48
4123;BME280;2075;51.062;6.920;2023-03-23T09:20:49;93908.09;;;-144.48;70.36
4123;BME280;2075;51.062;6.920;2023-03-23T09:23:35;93899.97;;;-144.48;70.81
4123;BME280;2075;51.062;6.920;2023-03-23T09:26:21;93910.13;;;-144.48;69.23
4123;BME280;2075;51.062;6.920;2023-03-23T09:29:06;93902.00;;;-144.48;67.80
4123;BME280;2075;51.062;6.920;2023-03-23T09:31:52;93881.69;;;-144.48;68.42
4123;BME280;2075;51.062;6.920;2023-03-23T09:34:39;93916.22;;;-144.48;68.20
4123;BME280;2075;51.062;6.920;2023-03-23T09:37:25;93857.28;;;-144.48;66.08
4123;BME280;2075;51.062;6.920;2023-03-23T09:40:14;93863.41;;;-144.48;66.55
4123;BME280;2075;51.062;6.920;2023-03-23T09:43:17;93877.63;;;-144.48;66.59
4123;BME280;2075;51.062;6.920;2023-03-23T09:46:17;93893.88;;;-144.48;67.51
4123;BME280;2075;51.062;6.920;2023-03-23T09:49:09;93932.47;;;-144.48;63.25
4123;BME280;2075;51.062;6.920;2023-03-23T09:52:02;93879.66;;;-144.48;62.82
4123;BME280;2075;51.062;6.920;2023-03-23T09:54:51;93867.47;;;-144.48;61.92
4123;BME280;2075;51.062;6.920;2023-03-23T09:57:41;93895.91;;;-144.48;60.48
4123;BME280;2075;51.062;6.920;2023-03-23T10:00:31;93477.44;;;-144.48;60.37
4123;BME280;2075;51.062;6.920;2023-03-23T10:03:21;93889.81;;;-144.48;62.22
4123;BME280;2075;51.062;6.920;2023-03-23T10:06:12;93887.78;;;-144.48;62.26
4123;BME280;2075;51.062;6.920;2023-03-23T10:09:03;93865.44;;;-144.48;62.38
4123;BME280;2075;51.062;6.920;2023-03-23T10:11:58;93834.94;;;-144.48;61.07
4123;BME280;2075;51.062;6.920;2023-03-23T10:15:03;93810.56;;;-144.48;61.51
4123;BME280;2075;51.062;6.920;2023-03-23T10:17:56;93798.38;;;-144.48;62.85
4123;BME280;2075;51.062;6.920;2023-03-23T10:20:48;93808.53;;;-144.48;63.33
4123;BME280;2075;51.062;6.920;2023-03-23T10:23:54;93873.56;;;-144.48;64.91
4123;BME280;2075;51.062;6.920;2023-03-23T10:26:48;93859.31;;;-144.48;67.38
4123;BME280;2075;51.062;6.920;2023-03-23T10:29:40;93895.91;;;-144.48;69.32
4123;BME280;2075;51.062;6.920;2023-03-23T10:32:41;93861.34;;;-144.48;70.84
4123;BME280;2075;51.062;6.920;2023-03-23T10:35:32;93969.03;;;-144.48;72.69
4123;BME280;2075;51.062;6.920;2023-03-23T10:38:36;93885.75;;;-144.48;72.55
4123;BME280;2075;51.062;6.920;2023-03-23T10:41:22;93954.81;;;-144.48;73.39
4123;BME280;2075;51.062;6.920;2023-03-23T10:44:12;93938.56;;;-144.48;73.53
4123;BME280;2075;51.062;6.920;2023-03-23T10:47:01;93981.22;;;-144.48;73.91
4123;BME280;2075;51.062;6.920;2023-03-23T10:49:50;93916.22;;;-144.48;74.49
4123;BME280;2075;51.062;6.920;2023-03-23T10:52:38;93954.81;;;-144.48;75.00
4123;BME280;2075;51.062;6.920;2023-03-23T10:55:35;93920.28;;;-144.48;75.62
4123;BME280;2075;51.062;6.920;2023-03-23T10:58:24;93944.66;;;-144.48;78.57
4123;BME280;2075;51.062;6.920;2023-03-23T11:01:18;93960.91;;;-144.48;82.57
4123;BME280;2075;51.062;6.920;2023-03-23T11:04:11;93924.34;;;-144.48;85.05
4123;BME280;2075;51.062;6.920;2023-03-23T11:07:00;93932.47;;;-144.48;85.42
4123;BME280;2075;51.062;6.920;2023-03-23T11:09:53;93918.25;;;-144.48;85.03
4123;BME280;2075;51.062;6.920;2023-03-23T11:12:43;93798.38;;;-144.48;83.41
4123;BME280;2075;51.062;6.920;2023-03-23T11:15:31;93883.72;;;-144.48;83.11
4123;BME280;2075;51.062;6.920;2023-03-23T11:18:21;93804.47;;;-144.48;82.47
4123;BME280;2075;51.062;6.920;2023-03-23T11:21:08;93867.47;;;-144.48;80.64
4123;BME280;2075;51.062;6.920;2023-03-23T11:23:59;93914.19;;;-144.48;80.55
4123;BME280;2075;51.062;6.920;2023-03-23T11:26:45;93867.47;;;-144.48;81.32
4123;BME280;2075;51.062;6.920;2023-03-23T11:29:33;93881.69;;;-144.48;79.44
4123;BME280;2075;51.062;6.920;2023-03-23T11:32:23;93792.28;;;-144.48;80.21
4123;BME280;2075;51.062;6.920;2023-03-23T11:35:16;93871.50;;;-144.48;85.37
4123;BME280;2075;51.062;6.920;2023-03-23T11:38:04;93857.28;;;-144.48;92.06
4123;BME280;2075;51.062;6.920;2023-03-23T11:40:52;93292.59;;;-144.48;99.92
4123;BME280;2075;51.062;6.920;2023-03-23T11:43:41;90925.16;;;-144.48;100.00
4123;BME280;2075;51.062;6.920;2023-03-23T11:46:34;56566.16;;;-144.48;100.00
4123;BME280;2075;51.062;6.920;2023-03-23T11:49:28;35796.19;;;-144.48;100.00
4123;BME280;2075;51.062;6.920;2023-03-23T11:52:24;21511.53;;;-144.48;100.00
4123;BME280;2075;51.062;6.920;2023-03-23T11:55:15;12868.53;;;-144.48;100.00
4123;BME280;2075;51.062;6.920;2023-03-23T11:58:07;5514.38;;;-144.48;100.00
4123;BME280;2075;51.062;6.920;2023-03-23T12:00:58;3741.69;;;-144.48;100.00
4123;BME280;2075;51.062;6.920;2023-03-23T12:04:03;452.09;;;-144.48;100.00
4123;BME280;2075;51.062;6.920;2023-03-23T12:06:54;7794.94;;;-144.48;100.00
4123;BME280;2075;51.062;6.920;2023-03-23T12:09:48;30432.28;;;-144.48;100.00
4123;BME280;2075;51.062;6.920;2023-03-23T12:12:42;72679.84;;;-144.48;100.00
4123;BME280;2075;51.062;6.920;2023-03-23T12:15:36;91233.69;;;-144.48;100.00
4123;BME280;2075;51.062;6.920;2023-03-23T12:18:32;93252.00;;;-144.48;96.61
4123;BME280;2075;51.062;6.920;2023-03-23T12:21:25;92957.50;;;-144.48;97.78
4123;BME280;2075;51.062;6.920;2023-03-23T12:24:21;93101.69;;;-144.48;97.24
4123;BME280;2075;51.062;6.920;2023-03-23T12:27:19;93408.38;;;-144.48;95.93
4123;BME280;2075;51.062;6.920;2023-03-23T12:30:25;93276.38;;;-144.48;98.83
4123;BME280;2075;51.062;6.920;2023-03-23T12:33:22;88756.09;;;-144.48;100.00
4123;BME280;2075;51.062;6.920;2023-03-23T12:36:19;77864.44;;;-144.48;100.00
4123;BME280;2075;51.062;6.920;2023-03-23T12:39:39;62744.81;;;-144.48;100.00
4123;BME280;2075;51.062;6.920;2023-03-23T12:42:37;73178.56;;;-144.48;100.00
4123;BME280;2075;51.062;6.920;2023-03-23T12:45:48;84136.41;;;-144.48;100.00
4123;BME280;2075;51.062;6.920;2023-03-23T12:48:39;91343.31;;;-144.48;100.00
4123;BME280;2075;51.062;6.920;2023-03-23T12:51:31;92648.81;;;-144.48;98.19
4123;BME280;2075;51.062;6.920;2023-03-23T12:54:23;93217.47;;;-144.48;94.89
4123;BME280;2075;51.062;6.920;2023-03-23T12:57:14;93485.56;;;-144.48;86.90
4123;BME280;2075;51.062;6.920;2023-03-23T13:00:07;93619.63;;;-144.48;83.65
4123;BME280;2075;51.062;6.920;2023-03-23T13:03:02;93706.97;;;-144.48;81.78
4123;BME280;2075;51.062;6.920;2023-03-23T13:05:56;93692.75;;;-144.48;84.99
4123;BME280;2075;51.062;6.920;2023-03-23T13:08:48;93709.00;;;-144.48;86.23
4123;BME280;2075;51.062;6.920;2023-03-23T13:11:36;93782.13;;;-144.48;84.46
4123;BME280;2075;51.062;6.920;2023-03-23T13:14:33;93841.03;;;-144.48;84.84
4123;BME280;2075;51.062;6.920;2023-03-23T13:17:29;93798.38;;;-144.48;85.23
4123;BME280;2075;51.062;6.920;2023-03-23T13:20:41;93798.38;;;-144.48;84.68
4123;BME280;2075;51.062;6.920;2023-03-23T13:23:31;93822.75;;;-144.48;86.09
4123;BME280;2075;51.062;6.920;2023-03-23T13:26:21;93778.06;;;-144.48;85.53
4123;BME280;2075;51.062;6.920;2023-03-23T13:29:12;93830.88;;;-144.48;84.83
4123;BME280;2075;51.062;6.920;2023-03-23T13:32:10;93786.19;;;-144.48;88.22
4123;BME280;2075;51.062;6.920;2023-03-23T13:35:01;93735.41;;;-144.48;90.10
4123;BME280;2075;51.062;6.920;2023-03-23T13:37:49;93776.03;;;-144.48;86.18
4123;BME280;2075;51.062;6.920;2023-03-23T13:40:36;93725.25;;;-144.48;85.08
4123;BME280;2075;51.062;6.920;2023-03-23T13:43:29;93739.47;;;-144.48;83.78
4123;BME280;2075;51.062;6.920;2023-03-23T13:46:28;93741.50;;;-144.48;83.43
4123;BME280;2075;51.062;6.920;2023-03-23T13:49:19;93778.06;;;-144.48;84.11
4123;BME280;2075;51.062;6.920;2023-03-23T13:52:16;93804.47;;;-144.48;83.94
4123;BME280;2075;51.062;6.920;2023-03-23T13:55:21;93849.16;;;-144.48;88.07
4123;BME280;2075;51.062;6.920;2023-03-23T13:58:20;93648.06;;;-144.48;97.16
4123;BME280;2075;51.062;6.920;2023-03-23T14:01:13;91775.72;;;-144.48;100.00
4123;BME280;2075;51.062;6.920;2023-03-23T14:04:00;89265.28;;;-144.48;100.00
4123;BME280;2075;51.062;6.920;2023-03-23T14:06:49;91063.19;;;-144.48;100.00
4123;BME280;2075;51.062;6.920;2023-03-23T14:09:46;92837.69;;;-144.48;99.63
4123;BME280;2075;51.062;6.920;2023-03-23T14:12:34;92652.88;;;-144.48;100.00
4123;BME280;2075;51.062;6.920;2023-03-23T14:15:20;93245.91;;;-144.48;97.60
4123;BME280;2075;51.062;6.920;2023-03-23T14:18:05;93514.00;;;-144.48;93.60
4123;BME280;2075;51.062;6.920;2023-03-23T14:20:51;93623.69;;;-144.48;89.94
4123;BME280;2075;51.062;6.920;2023-03-23T14:23:36;93652.13;;;-144.48;87.92
4123;BME280;2075;51.062;6.920;2023-03-23T14:26:23;93646.03;;;-144.48;88.42
4123;BME280;2075;51.062;6.920;2023-03-23T14:29:11;93652.13;;;-144.48;86.29
4123;BME280;2075;51.062;6.920;2023-03-23T14:31:58;93568.84;;;-144.48;83.59
4123;BME280;2075;51.062;6.920;2023-03-23T14:34:47;93532.28;;;-144.48;82.80
4123;BME280;2075;51.062;6.920;2023-03-23T14:37:34;93538.38;;;-144.48;82.12
4123;BME280;2075;51.062;6.920;2023-03-23T14:40:20;93607.44;;;-144.48;82.78
4123;BME280;2075;51.062;6.920;2023-03-23T14:43:08;93656.19;;;-144.48;84.98
4123;BME280;2075;51.062;6.920;2023-03-23T14:45:59;93666.34;;;-144.48;86.02
4123;BME280;2075;51.062;6.920;2023-03-23T14:48:46;93664.31;;;-144.48;86.88
4123;BME280;2075;51.062;6.920;2023-03-23T14:51:31;93717.13;;;-144.48;89.04
4123;BME280;2075;51.062;6.920;2023-03-23T14:54:22;93664.31;;;-144.48;91.62
4123;BME280;2075;51.062;6.920;2023-03-23T14:57:13;93656.19;;;-144.48;93.36
4123;BME280;2075;51.062;6.920;2023-03-23T15:00:01;93359.63;;;-144.48;97.26
4123;BME280;2075;51.062;6.920;2023-03-23T15:02:50;93136.22;;;-144.48;99.10
4123;BME280;2075;51.062;6.920;2023-03-23T15:05:41;91930.03;;;-144.48;100.00
4123;BME280;2075;51.062;6.920;2023-03-23T15:08:30;92561.50;;;-144.48;100.00